This is the latest recevied weather packets stored in our database for station/object W7TJC. If no packets are shown the sender has not sent any weather packets the latest 10 day(s).
| Time | Temp. | Humidity | Pressure | Rain* | Wind** | Luminosity | Snow |
|---|---|---|---|---|---|---|---|
| 1777496580 | 19.44° C | 54% | 1024.7 hPa | 0 mm | - | 681 W/m² | - |
| 1777496276 | 18.89° C | 55% | 1024.8 hPa | 0 mm | - | 728 W/m² | - |
| 1777495972 | 19.44° C | 53% | 1024.7 hPa | 0 mm | - | 722 W/m² | - |
| 1777495668 | 18.33° C | 55% | 1024.7 hPa | 0 mm | - | 738 W/m² | - |
| 1777495364 | 18.89° C | 57% | 1024.7 hPa | 0 mm | - | 776 W/m² | - |
| 1777495062 | 18.33° C | 57% | 1024.8 hPa | 0 mm | - | 743 W/m² | - |
| 1777494759 | 18.33° C | 59% | 1025 hPa | 0 mm | - | 704 W/m² | - |
| 1777494456 | 18.33° C | 55% | 1024.7 hPa | 0 mm | - | 688 W/m² | - |
| 1777494152 | 18.33° C | 56% | 1025 hPa | 0 mm | - | 725 W/m² | - |
| 1777493850 | 17.78° C | 58% | 1025.1 hPa | 0 mm | - | 750 W/m² | - |
| 1777493548 | 17.78° C | 58% | 1024.9 hPa | 0 mm | - | 760 W/m² | - |
| 1777493245 | 17.78° C | 57% | 1025.1 hPa | 0 mm | - | 733 W/m² | - |
| 1777492941 | 17.22° C | 60% | 1025.1 hPa | 0 mm | - | 697 W/m² | - |
| 1777492639 | 17.78° C | 58% | 1025.1 hPa | 0 mm | - | 634 W/m² | - |
| 1777492339 | 17.22° C | 59% | 1025.2 hPa | 0 mm | - | 650 W/m² | - |
| 1777492036 | 17.22° C | 58% | 1025.1 hPa | 0 mm | - | 629 W/m² | - |
| 1777491733 | 17.78° C | 60% | 1025.4 hPa | 0 mm | - | 648 W/m² | - |
| 1777491430 | 17.22° C | 62% | 1025.4 hPa | 0 mm | - | 712 W/m² | - |
| 1777491127 | 16.67° C | 60% | 1025.3 hPa | 0 mm | - | 788 W/m² | - |
| 1777490823 | 16.11° C | 62% | 1025.4 hPa | 0 mm | - | 772 W/m² | - |
| 1777490520 | 16.11° C | 61% | 1025.4 hPa | 0 mm | - | 832 W/m² | - |
| 1777490215 | 16.67° C | 61% | 1025.3 hPa | 0 mm | - | 850 W/m² | - |
| 1777489913 | 16.11° C | 62% | 1025.3 hPa | 0 mm | - | 855 W/m² | - |
| 1777489610 | 16.11° C | 61% | 1025.4 hPa | 0 mm | - | 825 W/m² | - |
| 1777489307 | 16.11° C | 62% | 1025.4 hPa | 0 mm | - | 813 W/m² | - |
* Rain latest hour (hover to see other rain measurements)
** Current wind speed in m/s (hover to see current wind gust speed)